Flight Track Log - Related Links

Times and Time Zones

All times are in EST time to prevent confusion due to time zone crossing. See the AFL1742 flight status page for this flight to view local times or setup timezone preferences in your user account.

Time Position Orientation Groundspeed Altitude Reporting Facility
EST Latitude Longitude Course Direction KTS MPH feet Rate Location/Type
Sat 10:31:00 AM 56.0995 37.7512 50° Northeast  Level Estimated
Sat 10:32:00 AM 56.1769 37.9173 50° Northeast  Level Estimated
Sat 10:33:00 AM 56.2541 38.0841 50° Northeast  Level Estimated
Sat 10:34:00 AM 56.3311 38.2515 50° Northeast  Level Estimated
Sat 10:35:00 AM 56.4078 38.4196 50° Northeast  Level Estimated
Sat 10:36:00 AM 56.4843 38.5884 51° Northeast  Level Estimated
Sat 10:37:00 AM 56.5606 38.7579 51° Northeast  Level Estimated
Sat 10:38:00 AM 56.6366 38.9280 51° Northeast  Level Estimated
Sat 10:39:00 AM 56.7124 39.0989 51° Northeast  Level Estimated
Sat 10:40:00 AM 56.7880 39.2704 51° Northeast  Level Estimated
Sat 10:41:00 AM 56.8634 39.4426 51° Northeast  Level Estimated
Sat 10:42:00 AM 56.9385 39.6155 51° Northeast  Level Estimated
Sat 10:43:00 AM 57.0134 39.7891 52° Northeast  Level Estimated
Sat 10:44:00 AM 57.0880 39.9634 52° Northeast  Level Estimated
Sat 10:45:00 AM 57.1624 40.1385 52° Northeast  Level Estimated
Sat 10:46:00 AM 57.2365 40.3142 52° Northeast  Level Estimated
Sat 10:47:00 AM 57.3104 40.4906 52° Northeast  Level Estimated
Sat 10:48:00 AM 57.3841 40.6677 52° Northeast  Level Estimated
Sat 10:49:00 AM 57.4575 40.8456 52° Northeast  Level Estimated
Sat 10:50:00 AM 57.5306 41.0241 53° Northeast  Level Estimated
Sat 10:51:00 AM 57.6035 41.2034 53° Northeast  Level Estimated
Sat 10:52:00 AM 57.6762 41.3834 53° Northeast  Level Estimated
Sat 10:53:00 AM 57.7485 41.5641 53° Northeast  Level Estimated
Sat 10:54:00 AM 57.8192 41.7419 53° Northeast  Level Estimated
Sat 10:55:00 AM 57.8897 41.9205 53° Northeast  Level Estimated
Sat 10:56:00 AM 57.9599 42.0997 54° Northeast  Level Estimated
Sat 10:57:00 AM 58.0298 42.2797 54° Northeast  Level Estimated
Sat 10:58:00 AM 58.0995 42.4603 54° Northeast  Level Estimated
Sat 10:59:00 AM 58.1689 42.6417 54° Northeast  Level Estimated
Sat 11:00:00 AM 58.2381 42.8237 54° Northeast  Level Estimated
Sat 11:01:00 AM 58.3070 43.0065 54° Northeast  Level Estimated
Sat 11:02:00 AM 58.3757 43.1900 54° Northeast  Level Estimated
Sat 11:03:00 AM 58.4441 43.3741 55° Northeast  Level Estimated
Sat 11:04:00 AM 58.5122 43.5591 55° Northeast  Level Estimated
Sat 11:05:00 AM 58.5801 43.7447 55° Northeast  Level Estimated
Sat 11:06:00 AM 58.6476 43.9310 55° Northeast  Level Estimated
Sat 11:07:00 AM 58.7150 44.1181 55° Northeast  Level Estimated
Sat 11:08:00 AM 58.7820 44.3059 55° Northeast  Level Estimated
Sat 11:09:00 AM 58.8488 44.4944 56° Northeast  Level Estimated
Sat 11:10:00 AM 58.9153 44.6837 56° Northeast  Level Estimated
Sat 11:11:00 AM 58.9815 44.8736 56° Northeast  Level Estimated
Sat 11:12:00 AM 59.0474 45.0643 56° Northeast  Level Estimated
Sat 11:13:00 AM 59.1131 45.2558 56° Northeast  Level Estimated
Sat 11:14:00 AM 59.1785 45.4479 56° Northeast  Level Estimated
Sat 11:15:00 AM 59.2436 45.6408 57° Northeast  Level Estimated
Sat 11:16:00 AM 59.3084 45.8345 57° Northeast  Level Estimated
Sat 11:17:00 AM 59.3729 46.0289 57° Northeast  Level Estimated
Sat 11:18:00 AM 59.4371 46.2240 57° Northeast  Level Estimated
Sat 11:19:00 AM 59.5011 46.4198 57° Northeast  Level Estimated
Sat 11:20:00 AM 59.5647 46.6164 57° Northeast  Level Estimated
Sat 11:21:00 AM 59.6281 46.8138 58° Northeast  Level Estimated
Sat 11:22:00 AM 59.6911 47.0118 58° Northeast  Level Estimated
Sat 11:23:00 AM 59.7539 47.2107 58° Northeast  Level Estimated
Sat 11:24:00 AM 59.8163 47.4103 58° Northeast  Level Estimated
Sat 11:25:00 AM 59.8784 47.6106 58° Northeast  Level Estimated
Sat 11:26:00 AM 59.9403 47.8116 58° Northeast  Level Estimated
Sat 11:27:00 AM 60.0018 48.0135 59° Northeast  Level Estimated
Sat 11:28:00 AM 60.0630 48.2160 59° Northeast  Level Estimated
Sat 11:29:00 AM 60.1240 48.4194 59° Northeast  Level Estimated
Sat 11:30:00 AM 60.1846 48.6234 59° Northeast  Level Estimated
Sat 11:31:00 AM 60.2448 48.8283 59° Northeast  Level Estimated
Sat 11:32:00 AM 60.3048 49.0339 59° Northeast  Level Estimated
Sat 11:33:00 AM 60.3644 49.2402 60° Northeast  Level Estimated
Sat 11:34:00 AM 60.4238 49.4473 60° Northeast  Level Estimated
Sat 11:35:00 AM 60.4828 49.6551 60° Northeast  Level Estimated
Sat 11:36:00 AM 60.5415 49.8637 60° Northeast  Level Estimated
Sat 11:37:00 AM 60.5998 50.0731 60° Northeast  Level Estimated
Sat 11:38:00 AM 60.6579 50.2832 61° Northeast  Level Estimated
Sat 11:39:00 AM 60.7156 50.4941 61° Northeast  Level Estimated
Sat 11:40:00 AM 60.7729 50.7057 61° Northeast  Level Estimated
Sat 11:41:00 AM 60.8299 50.9181 61° Northeast  Level Estimated
Sat 11:42:00 AM 60.8866 51.1312 61° Northeast  Level Estimated
Sat 11:43:00 AM 60.9430 51.3451 61° Northeast  Level Estimated
Sat 11:44:00 AM 60.9990 51.5598 62° Northeast  Level Estimated
Sat 11:45:00 AM 61.0547 51.7752 62° Northeast  Level Estimated
Sat 11:46:00 AM 61.1100 51.9913 62° Northeast  Level Estimated
Sat 11:47:00 AM 61.1650 52.2082 62° Northeast  Level Estimated
Sat 11:48:00 AM 61.2196 52.4259 62° Northeast  Level Estimated
Sat 11:49:00 AM 61.2739 52.6443 63° Northeast  Level Estimated
Sat 11:50:00 AM 61.3278 52.8635 63° Northeast  Level Estimated
Sat 11:51:00 AM 61.3814 53.0835 63° Northeast  Level Estimated
Sat 11:52:00 AM 61.4346 53.3042 63° Northeast  Level Estimated
Sat 11:53:00 AM 61.4875 53.5256 63° Northeast  Level Estimated
Sat 11:54:00 AM 61.5400 53.7478 64° Northeast  Level Estimated
Sat 11:55:00 AM 61.5921 53.9707 64° Northeast  Level Estimated
Sat 11:56:00 AM 61.6439 54.1944 64° Northeast  Level Estimated
Sat 11:57:00 AM 61.6953 54.4189 64° Northeast  Level Estimated
Sat 11:58:00 AM 61.7464 54.6440 64° Northeast  Level Estimated
Sat 11:59:00 AM 61.7970 54.8700 65° Northeast  Level Estimated
Sat 12:00:00 PM 61.8473 55.0966 65° Northeast  Level Estimated
Sat 12:01:00 PM 61.8973 55.3241 65° Northeast  Level Estimated
Sat 12:02:00 PM 61.9468 55.5522 65° Northeast  Level Estimated
Sat 12:03:00 PM 61.9960 55.7811 65° Northeast  Level Estimated
Sat 12:04:00 PM 62.0448 56.0107 66° East  Level Estimated
Sat 12:05:00 PM 62.0932 56.2411 66° East  Level Estimated
Sat 12:06:00 PM 62.1412 56.4722 66° East  Level Estimated
Sat 12:07:00 PM 62.1889 56.7040 66° East  Level Estimated
Sat 12:08:00 PM 62.2361 56.9366 66° East  Level Estimated
Sat 12:09:00 PM 62.2830 57.1699 67° East  Level Estimated
Sat 12:10:00 PM 62.3294 57.4039 67° East  Level Estimated
Sat 12:11:00 PM 62.3755 57.6386 67° East  Level Estimated
Sat 12:12:00 PM 62.4212 57.8741 67° East  Level Estimated
Sat 12:13:00 PM 62.4665 58.1102 67° East  Level Estimated
Sat 12:14:00 PM 62.5113 58.3471 68° East  Level Estimated
Sat 12:15:00 PM 62.5558 58.5847 68° East  Level Estimated
Sat 12:16:00 PM 62.5999 58.8230 68° East  Level Estimated
Sat 12:17:00 PM 62.6436 59.0620 68° East  Level Estimated
Sat 12:18:00 PM 62.6868 59.3017 68° East  Level Estimated
Sat 12:19:00 PM 62.7297 59.5421 69° East  Level Estimated
Sat 12:20:00 PM 62.7721 59.7832 69° East  Level Estimated
Sat 12:21:00 PM 62.8141 60.0250 69° East  Level Estimated
Sat 12:22:00 PM 62.8557 60.2675 69° East  Level Estimated
Sat 12:23:00 PM 62.8969 60.5107 70° East  Level Estimated
Sat 12:24:00 PM 62.9377 60.7545 70° East  Level Estimated
Sat 12:25:00 PM 62.9781 60.9991 70° East  Level Estimated
Sat 12:26:00 PM 63.0180 61.2443 70° East  Level Estimated
Sat 12:27:00 PM 63.0575 61.4901 70° East  Level Estimated
Sat 12:28:00 PM 63.0965 61.7367 71° East  Level Estimated
Sat 12:29:00 PM 63.1352 61.9838 71° East  Level Estimated
Sat 12:30:00 PM 63.1734 62.2317 71° East  Level Estimated
Sat 12:31:00 PM 63.2112 62.4802 71° East  Level Estimated
Sat 12:32:00 PM 63.2485 62.7293 71° East  Level Estimated
Sat 12:33:00 PM 63.2854 62.9791 72° East  Level Estimated
Sat 12:34:00 PM 63.3219 63.2295 72° East  Level Estimated
Sat 12:35:00 PM 63.3579 63.4806 72° East  Level Estimated
Sat 12:36:00 PM 63.3935 63.7323 72° East  Level Estimated
Sat 12:37:00 PM 63.4286 63.9846 73° East  Level Estimated
Sat 12:38:00 PM 63.4633 64.2375 73° East  Level Estimated
Sat 12:39:00 PM 63.4976 64.4910 73° East  Level Estimated
Sat 12:40:00 PM 63.5314 64.7451 73° East  Level Estimated
Sat 12:41:00 PM 63.5647 64.9999 74° East  Level Estimated
Sat 12:42:00 PM 63.5976 65.2552 74° East  Level Estimated
Sat 12:43:00 PM 63.6301 65.5111 74° East  Level Estimated
Sat 12:44:00 PM 63.6621 65.7676 74° East  Level Estimated
Sat 12:45:00 PM 63.6936 66.0246 74° East  Level Estimated
Sat 12:46:00 PM 63.7247 66.2823 75° East  Level Estimated
Sat 12:47:00 PM 63.7553 66.5405 75° East  Level Estimated
Sat 12:48:00 PM 63.7854 66.7992 75° East  Level Estimated
Sat 12:49:00 PM 63.8151 67.0585 75° East  Level Estimated
Sat 12:50:00 PM 63.8443 67.3184 76° East  Level Estimated
Sat 12:51:00 PM 63.8731 67.5787 76° East  Level Estimated
Sat 12:52:00 PM 63.9014 67.8397 76° East  Level Estimated
Sat 12:53:00 PM 63.9292 68.1011 76° East  Level Estimated
Sat 12:54:00 PM 63.9565 68.3630 77° East  Level Estimated
Sat 12:55:00 PM 63.9834 68.6255 77° East  Level Estimated
Sat 12:56:00 PM 64.0098 68.8884 77° East  Level Estimated
Sat 12:57:00 PM 64.0357 69.1519 77° East  Level Estimated
Sat 12:58:00 PM 64.0611 69.4158 77° East  Level Estimated
Sat 12:59:00 PM 64.0861 69.6802 78° East  Level Estimated
Sat 01:00:00 PM 64.1105 69.9451 78° East  Level Estimated
Sat 01:01:00 PM 64.1345 70.2104 78° East  Level Estimated
Sat 01:02:00 PM 64.1581 70.4762 78° East  Level Estimated
Sat 01:03:00 PM 64.1811 70.7425 79° East  Level Estimated
Sat 01:04:00 PM 64.2036 71.0091 79° East  Level Estimated
Sat 01:05:00 PM 64.2257 71.2763 79° East  Level Estimated
Sat 01:06:00 PM 64.2472 71.5438 79° East  Level Estimated
Sat 01:07:00 PM 64.2683 71.8117 80° East  Level Estimated
Sat 01:08:00 PM 64.2889 72.0801 80° East  Level Estimated
Sat 01:09:00 PM 64.3090 72.3488 80° East  Level Estimated
Sat 01:10:00 PM 64.3286 72.6179 80° East  Level Estimated
Sat 01:11:00 PM 64.3477 72.8875 81° East  Level Estimated
Sat 01:12:00 PM 64.3663 73.1573 81° East  Level Estimated
Sat 01:13:00 PM 64.3844 73.4276 81° East  Level Estimated
Sat 01:14:00 PM 64.4020 73.6982 81° East  Level Estimated
Sat 01:15:00 PM 64.4192 73.9691 82° East  Level Estimated
Sat 01:16:00 PM 64.4358 74.2404 82° East  Level Estimated
Sat 01:17:00 PM 64.4519 74.5119 82° East  Level Estimated
Sat 01:18:00 PM 64.4675 74.7839 82° East  Level Estimated
Sat 01:19:00 PM 64.4826 75.0561 83° East  Level Estimated
Sat 01:20:00 PM 64.4972 75.3286 83° East  Level Estimated
Sat 01:21:00 PM 64.5114 75.6014 83° East  Level Estimated
Sat 01:22:00 PM 64.5249 75.8744 83° East  Level Estimated
Sat 01:23:00 PM 64.5380 76.1478 84° East  Level Estimated
Sat 01:24:00 PM 64.5506 76.4214 84° East  Level Estimated
Sat 01:25:00 PM 64.5627 76.6952 84° East  Level Estimated
Sat 01:26:00 PM 64.5743 76.9693 84° East  Level Estimated
Sat 01:27:00 PM 64.5853 77.2436 85° East  Level Estimated
Sat 01:28:00 PM 64.5959 77.5181 85° East  Level Estimated
Sat 01:29:00 PM 64.6059 77.7929 85° East  Level Estimated
Sat 01:30:00 PM 64.6155 78.0678 85° East  Level Estimated
Sat 01:31:00 PM 64.6245 78.3429 86° East  Level Estimated
Sat 01:32:00 PM 64.6330 78.6182 86° East  Level Estimated
Sat 01:33:00 PM 64.6410 78.8937 86° East  Level Estimated
Sat 01:34:00 PM 64.6485 79.1693 86° East  Level Estimated
Sat 01:35:00 PM 64.6554 79.4451 86° East  Level Estimated
Sat 01:36:00 PM 64.6619 79.7210 87° East  Level Estimated
Sat 01:37:00 PM 64.6678 79.9970 87° East  Level Estimated
Sat 01:38:00 PM 64.6733 80.2732 87° East  Level Estimated
Sat 01:39:00 PM 64.6782 80.5494 87° East  Level Estimated
Sat 01:40:00 PM 64.6826 80.8258 88° East  Level Estimated
Sat 01:41:00 PM 64.6865 81.1022 88° East  Level Estimated
Sat 01:42:00 PM 64.6898 81.3787 88° East  Level Estimated
Sat 01:43:00 PM 64.6927 81.6553 88° East  Level Estimated
Sat 01:44:00 PM 64.6950 81.9319 89° East  Level Estimated
Sat 01:45:00 PM 64.6969 82.2086 89° East  Level Estimated
Sat 01:46:00 PM 64.6982 82.4853 89° East  Level Estimated
Sat 01:47:00 PM 64.6989 82.7620 89° East  Level Estimated
Sat 01:48:00 PM 64.6992 83.0387 90° East  Level Estimated
Sat 01:49:00 PM 64.6990 83.3155 90° East  Level Estimated
Sat 01:50:00 PM 64.6982 83.5922 90° East  Level Estimated
Sat 01:51:00 PM 64.6969 83.8689 90° East  Level Estimated
Sat 01:52:00 PM 64.6951 84.1455 91° East  Level Estimated
Sat 01:53:00 PM 64.6928 84.4222 91° East  Level Estimated
Sat 01:54:00 PM 64.6900 84.6987 91° East  Level Estimated
Sat 01:55:00 PM 64.6867 84.9753 91° East  Level Estimated
Sat 01:56:00 PM 64.6828 85.2517 92° East  Level Estimated
Sat 01:57:00 PM 64.6784 85.5280 92° East  Level Estimated
Sat 01:58:00 PM 64.6735 85.8043 92° East  Level Estimated
Sat 01:59:00 PM 64.6681 86.0805 92° East  Level Estimated
Sat 02:00:00 PM 64.6622 86.3565 93° East  Level Estimated
Sat 02:01:00 PM 64.6558 86.6324 93° East  Level Estimated
Sat 02:02:00 PM 64.6488 86.9082 93° East  Level Estimated
Sat 02:03:00 PM 64.6414 87.1838 93° East  Level Estimated
Sat 02:04:00 PM 64.6334 87.4593 94° East  Level Estimated
Sat 02:05:00 PM 64.6249 87.7346 94° East  Level Estimated
Sat 02:06:00 PM 64.6159 88.0097 94° East  Level Estimated
Sat 02:07:00 PM 64.6064 88.2847 94° East  Level Estimated
Sat 02:08:00 PM 64.5964 88.5594 95° East  Level Estimated
Sat 02:09:00 PM 64.5859 88.8339 95° East  Level Estimated
Sat 02:10:00 PM 64.5748 89.1083 95° East  Level Estimated
Sat 02:11:00 PM 64.5633 89.3824 95° East  Level Estimated
Sat 02:12:00 PM 64.5512 89.6562 96° East  Level Estimated
Sat 02:13:00 PM 64.5387 89.9298 96° East  Level Estimated
Sat 02:14:00 PM 64.5256 90.2032 96° East  Level Estimated
Sat 02:15:00 PM 64.5120 90.4763 96° East  Level Estimated
Sat 02:16:00 PM 64.4979 90.7491 97° East  Level Estimated
Sat 02:17:00 PM 64.4834 91.0216 97° East  Level Estimated
Sat 02:18:00 PM 64.4683 91.2938 97° East  Level Estimated
Sat 02:19:00 PM 64.4527 91.5657 97° East  Level Estimated
Sat 02:20:00 PM 64.4366 91.8373 98° East  Level Estimated
Sat 02:21:00 PM 64.4200 92.1086 98° East  Level Estimated
Sat 02:22:00 PM 64.4029 92.3796 98° East  Level Estimated
Sat 02:23:00 PM 64.3853 92.6502 98° East  Level Estimated
Sat 02:24:00 PM 64.3672 92.9204 99° East  Level Estimated
Sat 02:25:00 PM 64.3487 93.1904 99° East  Level Estimated
Sat 02:26:00 PM 64.3296 93.4599 99° East  Level Estimated
Sat 02:27:00 PM 64.3100 93.7290 99° East  Level Estimated
Sat 02:28:00 PM 64.2899 93.9978 100° East  Level Estimated
Sat 02:29:00 PM 64.2694 94.2662 100° East  Level Estimated
Sat 02:30:00 PM 64.2483 94.5341 100° East  Level Estimated
Sat 02:31:00 PM 64.2268 94.8017 100° East  Level Estimated
Sat 02:32:00 PM 64.2048 95.0688 101° East  Level Estimated
Sat 02:33:00 PM 64.1822 95.3355 101° East  Level Estimated
Sat 02:34:00 PM 64.1592 95.6018 101° East  Level Estimated
Sat 02:35:00 PM 64.1357 95.8676 101° East  Level Estimated
Sat 02:36:00 PM 64.1118 96.1329 102° East  Level Estimated
Sat 02:37:00 PM 64.0873 96.3978 102° East  Level Estimated
Sat 02:38:00 PM 64.0624 96.6623 102° East  Level Estimated
Sat 02:39:00 PM 64.0370 96.9262 102° East  Level Estimated
Sat 02:40:00 PM 64.0111 97.1897 103° East  Level Estimated
Sat 02:41:00 PM 63.9847 97.4527 103° East  Level Estimated
Sat 02:42:00 PM 63.9579 97.7152 103° East  Level Estimated
Sat 02:43:00 PM 63.9306 97.9771 103° East  Level Estimated
Sat 02:44:00 PM 63.9028 98.2386 103° East  Level Estimated
Sat 02:45:00 PM 63.8745 98.4995 104° East  Level Estimated
Sat 02:46:00 PM 63.8458 98.7599 104° East  Level Estimated
Sat 02:47:00 PM 63.8166 99.0198 104° East  Level Estimated
Sat 02:48:00 PM 63.7870 99.2791 104° East  Level Estimated
Sat 02:49:00 PM 63.7568 99.5379 105° East  Level Estimated
Sat 02:50:00 PM 63.7263 99.7961 105° East  Level Estimated
Sat 02:51:00 PM 63.6952 100.0538 105° East  Level Estimated
Sat 02:52:00 PM 63.6637 100.3109 105° East  Level Estimated
Sat 02:53:00 PM 63.6317 100.5674 106° East  Level Estimated
Sat 02:54:00 PM 63.5993 100.8233 106° East  Level Estimated
Sat 02:55:00 PM 63.5665 101.0787 106° East  Level Estimated
Sat 02:56:00 PM 63.5331 101.3335 106° East  Level Estimated
Sat 02:57:00 PM 63.4994 101.5876 106° East  Level Estimated
Sat 02:58:00 PM 63.4651 101.8412 107° East  Level Estimated
Sat 02:59:00 PM 63.4305 102.0941 107° East  Level Estimated
Sat 03:00:00 PM 63.3953 102.3465 107° East  Level Estimated
Sat 03:01:00 PM 63.3598 102.5982 107° East  Level Estimated
Sat 03:02:00 PM 63.3238 102.8492 108° East  Level Estimated
Sat 03:03:00 PM 63.2873 103.0997 108° East  Level Estimated
Sat 03:04:00 PM 63.2505 103.3495 108° East  Level Estimated
Sat 03:05:00 PM 63.2131 103.5987 108° East  Level Estimated
Sat 03:06:00 PM 63.1754 103.8472 109° East  Level Estimated
Sat 03:07:00 PM 63.1372 104.0951 109° East  Level Estimated
Sat 03:08:00 PM 63.0986 104.3423 109° East  Level Estimated
Sat 03:09:00 PM 63.0595 104.5889 109° East  Level Estimated
Sat 03:10:00 PM 63.0200 104.8348 109° East  Level Estimated
Sat 03:11:00 PM 62.9801 105.0800 110° East  Level Estimated
Sat 03:12:00 PM 62.9398 105.3246 110° East  Level Estimated
Sat 03:13:00 PM 62.8991 105.5685 110° East  Level Estimated
Sat 03:14:00 PM 62.8579 105.8117 110° East  Level Estimated
Sat 03:15:00 PM 62.8163 106.0542 110° East  Level Estimated
Sat 03:16:00 PM 62.7743 106.2960 111° Southeast  Level Estimated
Sat 03:17:00 PM 62.7319 106.5371 111° Southeast  Level Estimated
Sat 03:18:00 PM 62.6891 106.7776 111° Southeast  Level Estimated
Sat 03:19:00 PM 62.6458 107.0173 111° Southeast  Level Estimated
Sat 03:20:00 PM 62.6022 107.2564 112° Southeast  Level Estimated
Sat 03:21:00 PM 62.5582 107.4947 112° Southeast  Level Estimated
Sat 03:22:00 PM 62.5137 107.7323 112° Southeast  Level Estimated
Sat 03:23:00 PM 62.4688 107.9693 112° Southeast  Level Estimated
Sat 03:24:00 PM 62.4236 108.2055 112° Southeast  Level Estimated
Sat 03:25:00 PM 62.3779 108.4410 113° Southeast  Level Estimated
Sat 03:26:00 PM 62.3319 108.6757 113° Southeast  Level Estimated
Sat 03:27:00 PM 62.2854 108.9098 113° Southeast  Level Estimated
Sat 03:28:00 PM 62.2386 109.1431 113° Southeast  Level Estimated
Sat 03:29:00 PM 62.1913 109.3757 113° Southeast  Level Estimated
Sat 03:30:00 PM 62.1437 109.6076 114° Southeast  Level Estimated
Sat 03:31:00 PM 62.0957 109.8387 114° Southeast  Level Estimated
Sat 03:32:00 PM 62.0473 110.0691 114° Southeast  Level Estimated
Sat 03:33:00 PM 61.9986 110.2988 114° Southeast  Level Estimated
Sat 03:34:00 PM 61.9494 110.5277 114° Southeast  Level Estimated
Sat 03:35:00 PM 61.8999 110.7559 115° Southeast  Level Estimated
Sat 03:36:00 PM 61.8500 110.9834 115° Southeast  Level Estimated
Sat 03:37:00 PM 61.7997 111.2101 115° Southeast  Level Estimated
Sat 03:38:00 PM 61.7491 111.4360 115° Southeast  Level Estimated
Sat 03:39:00 PM 61.6980 111.6613 115° Southeast  Level Estimated
Sat 03:40:00 PM 61.6466 111.8857 116° Southeast  Level Estimated
Sat 03:41:00 PM 61.5949 112.1095 116° Southeast  Level Estimated
Sat 03:42:00 PM 61.5428 112.3325 116° Southeast  Level Estimated
Sat 03:43:00 PM 61.4903 112.5547 116° Southeast  Level Estimated
Sat 03:44:00 PM 61.4374 112.7762 116° Southeast  Level Estimated
Sat 03:45:00 PM 61.3842 112.9969 117° Southeast  Level Estimated
Sat 03:46:00 PM 61.3307 113.2169 117° Southeast  Level Estimated
Sat 03:47:00 PM 61.2768 113.4361 117° Southeast  Level Estimated
Sat 03:48:00 PM 61.2225 113.6546 117° Southeast  Level Estimated
Sat 03:49:00 PM 61.1679 113.8723 117° Southeast  Level Estimated
Sat 03:50:00 PM 61.1129 114.0892 118° Southeast  Level Estimated
Sat 03:51:00 PM 61.0576 114.3054 118° Southeast  Level Estimated
Sat 03:52:00 PM 61.0019 114.5209 118° Southeast  Level Estimated
Sat 03:53:00 PM 60.9459 114.7356 118° Southeast  Level Estimated
Sat 03:54:00 PM 60.8896 114.9495 118° Southeast  Level Estimated
Sat 03:55:00 PM 60.8329 115.1627 119° Southeast  Level Estimated
Sat 03:56:00 PM 60.7759 115.3751 119° Southeast  Level Estimated
Sat 03:57:00 PM 60.7186 115.5868 119° Southeast  Level Estimated
Sat 03:58:00 PM 60.6609 115.7977 119° Southeast  Level Estimated
Sat 03:59:00 PM 60.6029 116.0078 119° Southeast  Level Estimated
Sat 04:00:00 PM 60.5445 116.2172 119° Southeast  Level Estimated
Sat 04:01:00 PM 60.4859 116.4259 120° Southeast  Level Estimated
Sat 04:02:00 PM 60.4269 116.6337 120° Southeast  Level Estimated
Sat 04:03:00 PM 60.3676 116.8409 120° Southeast  Level Estimated
Sat 04:04:00 PM 60.3079 117.0472 120° Southeast  Level Estimated
Sat 04:05:00 PM 60.2480 117.2529 120° Southeast  Level Estimated
Sat 04:06:00 PM 60.1877 117.4577 121° Southeast  Level Estimated
Sat 04:07:00 PM 60.1271 117.6618 121° Southeast  Level Estimated
Sat 04:08:00 PM 60.0662 117.8652 121° Southeast  Level Estimated
Sat 04:09:00 PM 60.0050 118.0678 121° Southeast  Level Estimated
Sat 04:10:00 PM 59.9435 118.2697 121° Southeast  Level Estimated
Sat 04:11:00 PM 59.8817 118.4708 121° Southeast  Level Estimated
Sat 04:12:00 PM 59.8196 118.6711 122° Southeast  Level Estimated
Sat 04:13:00 PM 59.7571 118.8708 122° Southeast  Level Estimated
Sat 04:14:00 PM 59.6944 119.0696 122° Southeast  Level Estimated
Sat 04:15:00 PM 59.6314 119.2678 122° Southeast  Level Estimated
Sat 04:16:00 PM 59.5680 119.4651 122° Southeast  Level Estimated
Sat 04:17:00 PM 59.5044 119.6618 122° Southeast  Level Estimated
Sat 04:18:00 PM 59.4405 119.8577 123° Southeast  Level Estimated
Sat 04:19:00 PM 59.3763 120.0528 123° Southeast  Level Estimated
Sat 04:20:00 PM 59.3118 120.2472 123° Southeast  Level Estimated
Sat 04:21:00 PM 59.2470 120.4409 123° Southeast  Level Estimated
Sat 04:22:00 PM 59.1819 120.6338 123° Southeast  Level Estimated
Sat 04:23:00 PM 59.1166 120.8260 123° Southeast  Level Estimated
Sat 04:24:00 PM 59.0509 121.0175 124° Southeast  Level Estimated
Sat 04:25:00 PM 58.9850 121.2083 124° Southeast  Level Estimated
Sat 04:26:00 PM 58.9188 121.3983 124° Southeast  Level Estimated
Sat 04:27:00 PM 58.8523 121.5875 124° Southeast  Level Estimated
Sat 04:28:00 PM 58.7855 121.7761 124° Southeast  Level Estimated
Sat 04:29:00 PM 58.7185 121.9639 124° Southeast  Level Estimated
Sat 04:30:00 PM 58.6512 122.1510 125° Southeast  Level Estimated
Sat 04:31:00 PM 58.5836 122.3374 125° Southeast  Level Estimated
Sat 04:32:00 PM 58.5158 122.5231 125° Southeast  Level Estimated
Sat 04:33:00 PM 58.4477 122.7080 125° Southeast  Level Estimated
Sat 04:34:00 PM 58.3793 122.8923 125° Southeast  Level Estimated
Sat 04:35:00 PM 58.3106 123.0758 125° Southeast  Level Estimated
Sat 04:36:00 PM 58.2417 123.2586 126° Southeast  Level Estimated
Sat 04:37:00 PM 58.1726 123.4407 126° Southeast  Level Estimated
Sat 04:38:00 PM 58.1031 123.6221 126° Southeast  Level Estimated
Sat 04:39:00 PM 58.0335 123.8027 126° Southeast  Level Estimated
Sat 04:40:00 PM 57.9635 123.9827 126° Southeast  Level Estimated
Sat 04:41:00 PM 57.8934 124.1620 126° Southeast  Level Estimated
Sat 04:42:00 PM 57.8229 124.3406 126° Southeast  Level Estimated
Sat 04:43:00 PM 57.7522 124.5184 127° Southeast  Level Estimated
Sat 04:44:00 PM 57.6813 124.6956 127° Southeast  Level Estimated
Sat 04:45:00 PM 57.6101 124.8721 127° Southeast  Level Estimated
Sat 04:46:00 PM 57.5387 125.0479 127° Southeast  Level Estimated
Sat 04:47:00 PM 57.4670 125.2230 127° Southeast  Level Estimated
Sat 04:48:00 PM 57.3951 125.3974 127° Southeast  Level Estimated
Sat 04:49:00 PM 57.3230 125.5712 128° Southeast  Level Estimated
Sat 04:50:00 PM 57.2506 125.7442 128° Southeast  Level Estimated
Sat 04:51:00 PM 57.1779 125.9166 128° Southeast  Level Estimated
Sat 04:52:00 PM 57.1051 126.0883 128° Southeast  Level Estimated
Sat 04:53:00 PM 57.0320 126.2593 128° Southeast  Level Estimated
Sat 04:54:00 PM 56.9586 126.4297 128° Southeast  Level Estimated
Sat 04:55:00 PM 56.8851 126.5993 128° Southeast  Level Estimated
Sat 04:56:00 PM 56.8113 126.7683 129° Southeast  Level Estimated
Sat 04:57:00 PM 56.7373 126.9367 129° Southeast  Level Estimated
Sat 04:58:00 PM 56.6631 127.1044 129° Southeast  Level Estimated
Sat 04:59:00 PM 56.5886 127.2714 129° Southeast  Level Estimated
Sat 05:00:00 PM 56.5139 127.4378 129° Southeast  Level Estimated
Sat 05:01:00 PM 56.4390 127.6035 129° Southeast  Level Estimated
Sat 05:02:00 PM 56.3639 127.7685 129° Southeast  Level Estimated
Sat 05:03:00 PM 56.2885 127.9330 130° Southeast  Level Estimated
Sat 05:04:00 PM 56.2130 128.0967 130° Southeast  Level Estimated
Sat 05:05:00 PM 56.1372 128.2598 130° Southeast  Level Estimated
Sat 05:06:00 PM 56.0612 128.4223 130° Southeast  Level Estimated
Sat 05:07:00 PM 55.9850 128.5841 130° Southeast  Level Estimated
Sat 05:08:00 PM 55.9086 128.7453 130° Southeast  Level Estimated
Sat 05:09:00 PM 55.8319 128.9059 130° Southeast  Level Estimated
Sat 05:10:00 PM 55.7551 129.0658 130° Southeast  Level Estimated
Sat 05:11:00 PM 55.6780 129.2251 131° Southeast  Level Estimated
Sat 05:12:00 PM 55.6008 129.3838 131° Southeast  Level Estimated
Sat 05:13:00 PM 55.5233 129.5418 131° Southeast  Level Estimated
Sat 05:14:00 PM 55.4457 129.6992 131° Southeast  Level Estimated
Sat 05:15:00 PM 55.3678 129.8560 131° Southeast  Level Estimated
Sat 05:16:00 PM 55.2898 130.0122 131° Southeast  Level Estimated
Sat 05:17:00 PM 55.2115 130.1678 131° Southeast  Level Estimated
Sat 05:18:00 PM 55.1331 130.3228 131° Southeast  Level Estimated
Sat 05:19:00 PM 55.0544 130.4771 132° Southeast  Level Estimated
Sat 05:20:00 PM 54.9756 130.6309 132° Southeast  Level Estimated
Sat 05:21:00 PM 54.8965 130.7840 132° Southeast  Level Estimated
Sat 05:22:00 PM 54.8173 130.9366 132° Southeast  Level Estimated
Sat 05:23:00 PM 54.7379 131.0885 132° Southeast  Level Estimated
Sat 05:24:00 PM 54.6583 131.2399 132° Southeast  Level Estimated
Sat 05:25:00 PM 54.5785 131.3906 132° Southeast  Level Estimated
Sat 05:26:00 PM 54.4985 131.5408 132° Southeast  Level Estimated
Sat 05:27:00 PM 54.4184 131.6904 133° Southeast  Level Estimated
Sat 05:28:00 PM 54.3380 131.8394 133° Southeast  Level Estimated
Sat 05:29:00 PM 54.2575 131.9878 133° Southeast  Level Estimated
Sat 05:30:00 PM 54.1768 132.1356 133° Southeast  Level Estimated
Sat 05:31:00 PM 54.0959 132.2829 133° Southeast  Level Estimated
Sat 05:32:00 PM 54.0148 132.4296 133° Southeast  Level Estimated
Sat 05:33:00 PM 53.9336 132.5757 133° Southeast  Level Estimated
Sat 05:34:00 PM 53.8521 132.7212 133° Southeast  Level Estimated
Sat 05:35:00 PM 53.7705 132.8662 134° Southeast  Level Estimated
Sat 05:36:00 PM 53.6887 133.0106 134° Southeast  Level Estimated
Sat 05:37:00 PM 53.6068 133.1545 134° Southeast  Level Estimated
Sat 05:38:00 PM 53.5247 133.2978 134° Southeast  Level Estimated
Sat 05:39:00 PM 53.4424 133.4405 134° Southeast  Level Estimated
Sat 05:40:00 PM 53.3599 133.5827 134° Southeast  Level Estimated
Sat 05:41:00 PM 53.2773 133.7243 134° Southeast  Level Estimated
Sat 05:42:00 PM 53.1945 133.8654 134° Southeast  Level Estimated
Sat 05:43:00 PM 53.1115 134.0060 134° Southeast  Level Estimated
Sat 05:44:00 PM 53.0284 134.1460 135° Southeast  Level Estimated
Sat 05:45:00 PM 52.9451 134.2855 135° Southeast  Level Estimated
Sat 05:46:00 PM 52.8616 134.4244 135° Southeast  Level Estimated
Sat 05:47:00 PM 52.7780 134.5628 135° Southeast  Level Estimated
Sat 05:48:00 PM 52.6942 134.7007 135° Southeast  Level Estimated
Sat 05:49:00 PM 52.6103 134.8380 135° Southeast  Level Estimated
Sat 05:50:00 PM 52.5262 134.9748 135° Southeast  Level Estimated
Sat 05:51:00 PM 52.4420 135.1111 135° Southeast  Level Estimated
Sat 05:52:00 PM 52.3576 135.2469 135° Southeast  Level Estimated
Sat 05:53:00 PM 52.2730 135.3821 136° Southeast  Level Estimated
Sat 05:54:00 PM 52.1883 135.5169 136° Southeast  Level Estimated
Sat 05:55:00 PM 52.1034 135.6511 136° Southeast  Level Estimated
Sat 05:56:00 PM 52.0184 135.7848 136° Southeast  Level Estimated
Sat 05:57:00 PM 51.9332 135.9180 136° Southeast  Level Estimated
Sat 05:58:00 PM 51.8479 136.0507 136° Southeast  Level Estimated
Sat 05:59:00 PM 51.7624 136.1829 136° Southeast  Level Estimated
Sat 06:00:00 PM 51.6768 136.3146 136° Southeast  Level Estimated
Sat 06:01:00 PM 51.5910 136.4458 136° Southeast  Level Estimated
Sat 06:02:00 PM 51.5051 136.5765 137° Southeast  Level Estimated
Sat 06:03:00 PM 51.4191 136.7067 137° Southeast  Level Estimated
Sat 06:04:00 PM 51.3329 136.8364 137° Southeast  Level Estimated
Sat 06:05:00 PM 51.2465 136.9656 137° Southeast  Level Estimated
Sat 06:06:00 PM 51.1600 137.0944 137° Southeast  Level Estimated
Sat 06:07:00 PM 51.0734 137.2227 137° Southeast  Level Estimated
Sat 06:08:00 PM 50.9866 137.3504 137° Southeast  Level Estimated
Sat 06:09:00 PM 50.8997 137.4778 137° Southeast  Level Estimated
Sat 06:10:00 PM 50.8127 137.6046 137° Southeast  Level Estimated
Sat 06:11:00 PM 50.7255 137.7309 137° Southeast  Level Estimated
Sat 06:12:00 PM 50.6382 137.8568 138° Southeast  Level Estimated
Sat 06:13:00 PM 50.5508 137.9823 138° Southeast  Level Estimated
Sat 06:14:00 PM 50.4632 138.1072 138° Southeast  Level Estimated
Sat 06:15:00 PM 50.3755 138.2317 138° Southeast  Level Estimated
Sat 06:16:00 PM 50.2876 138.3558 138° Southeast  Level Estimated
Sat 06:17:00 PM 50.1996 138.4793 138° Southeast  Level Estimated
Sat 06:18:00 PM 50.1115 138.6025 138° Southeast  Level Estimated
Sat 06:19:00 PM 50.0233 138.7251 138° Southeast  Level Estimated
Sat 06:20:00 PM 49.9349 138.8474 138° Southeast  Level Estimated
Sat 06:21:00 PM 49.8464 138.9691 138° Southeast  Level Estimated
Sat 06:22:00 PM 49.7578 139.0905 138° Southeast  Level Estimated
Sat 06:23:00 PM 49.6690 139.2114 139° Southeast  Level Estimated
Sat 06:24:00 PM 49.5801 139.3318 139° Southeast  Level Estimated
Sat 06:25:00 PM 49.4911 139.4518 139° Southeast  Level Estimated
Sat 06:26:00 PM 49.4020 139.5714 139° Southeast  Level Estimated
Sat 06:27:00 PM 49.3128 139.6905 139° Southeast  Level Estimated
Sat 06:28:00 PM 49.2234 139.8092 139° Southeast  Level Estimated
Sat 06:29:00 PM 49.1339 139.9275 139° Southeast  Level Estimated
Sat 06:30:00 PM 49.0443 140.0454 139° Southeast  Level Estimated
Sat 06:31:00 PM 48.9546 140.1628 139° Southeast  Level Estimated
Sat 06:32:00 PM 48.8647 140.2798 139° Southeast  Level Estimated
Sat 06:33:00 PM 48.7747 140.3964 139° Southeast  Level Estimated
Sat 06:34:00 PM 48.6847 140.5126 140° Southeast  Level Estimated
Sat 06:35:00 PM 48.5945 140.6283 140° Southeast  Level Estimated
Sat 06:36:00 PM 48.5041 140.7437 140° Southeast  Level Estimated
Sat 06:37:00 PM 48.4137 140.8586 140° Southeast  Level Estimated
Sat 06:38:00 PM 48.3232 140.9731 140° Southeast  Level Estimated
Sat 06:39:00 PM 48.2325 141.0872 140° Southeast  Level Estimated
Sat 06:40:00 PM 48.1417 141.2009 140° Southeast  Level Estimated
Sat 06:41:00 PM 48.0508 141.3143 140° Southeast  Level Estimated
Sat 06:42:00 PM 47.9598 141.4272 140° Southeast  Level Estimated
Sat 06:43:00 PM 47.8687 141.5397 140° Southeast  Level Estimated
Sat 06:44:00 PM 47.7775 141.6518 140° Southeast  Level Estimated
Sat 06:45:00 PM 47.6862 141.7635 141° Southeast  Level Estimated
Sat 06:46:00 PM 47.5948 141.8748 141° Southeast  Level Estimated
Sat 06:47:00 PM 47.5032 141.9858 141° Southeast  Level Estimated
Sat 06:48:00 PM 47.4116 142.0963 141° Southeast  Level Estimated
Sat 06:49:00 PM 47.3198 142.2065 141° Southeast  Level Estimated
Sat 06:50:00 PM 47.2280 142.3163 141° Southeast  Level Estimated
Sat 06:51:00 PM 47.1360 142.4257 141° Southeast  Level Estimated
Sat 06:52:00 PM 47.0439 142.5348 141° Southeast  Level Estimated

Login

Don't have an account? Register now (free) for customized features, flight alerts, and more!